Aérodrome :
LOGIN :

S'inscrire | Disclaimer

   EN    FR    IT 

 










Légende :    VFR   VFR Marginal   IFR   IFR Intensif   IFR Très Intensif
Visi : 
Plafond : 
>= 8 km
>= 3000ft
5 à 8 km
1000 à 3000 ft
1500m à 5 km
500 à 1000 ft
800 à 1500m
200 à 500 ft
< 800m
< 200 ft
Symboles :   Orages  Brouillard  Fortes neiges  Fortes précipitations  Vent > 20 kt
SIGMETs :   Divers  Orages  Givrage  Turbulence  Onde Orograph.  Cendres Volcan.







- Altitude de l'aérodrome : 388 ft
- Code IATA : QYR
- Voir les cartes d'approche


LFQB - Troyes Barberey

DERNIER METAR :
  • 280730Z AUTO 19014KT 9999 FEW024 SCT180 05/03 Q0996

METARs EXPIRÉS :
  • 280700Z AUTO 19017KT CAVOK 05/03 Q0996
  • 280630Z AUTO 19015KT CAVOK 04/02 Q0996
  • 280600Z AUTO 19009KT CAVOK 04/02 Q0997
  • 280530Z AUTO 20012KT CAVOK 05/02 Q0997
  • 280500Z AUTO 20014KT 9999 FEW027 BKN180 05/02 Q0997

TAF N/A
Pas de NOTAMs connus pour ce terrain.
1 SIGMET publié pour la FIR Paris (LFFF) :
 
Turbulence forte
LFFF SIGMET 1 VALID 280400/280800 LFPW
LFFF PARIS FIR/UIR SEV TURB FCST WI N4900 W00015 - N5000 W00015 - N5115 E00200 - N5015 E00200 SFC/FL060 STNR WKN=



MET'MAP, la Météo Aéronautique d'un coup d'oeil ! - Copyright ORBIFLY Décembre 2007 - Disclaimer

ORBIFLY MET'MAP TEAM :

Programmation & Développement : Alexandra Zaïnal
Conception & Développement : Baudouin d'Aumeries
Co-Programmation & Développement : Marc-Olivier Méhu
Soutien technique & logistique : Manuel Goepfert

Contact : metmap@orbifly.com




SOURCES & CREDITS :

   NOAA